sensor_id;sensor_type;location;lat;lon;timestamp;temperature;humidity
14154;DHT22;7157;53.144;7.570;2023-08-17T00:06:11;17.19;93.14
14154;DHT22;7157;53.144;7.570;2023-08-17T00:16:14;17.07;93.54
14154;DHT22;7157;53.144;7.570;2023-08-17T00:26:18;17.08;93.53
14154;DHT22;7157;53.144;7.570;2023-08-17T00:36:21;17.02;93.76
14154;DHT22;7157;53.144;7.570;2023-08-17T00:46:25;17.06;93.79
14154;DHT22;7157;53.144;7.570;2023-08-17T00:56:29;17.09;93.95
14154;DHT22;7157;53.144;7.570;2023-08-17T01:06:33;17.09;94.04
14154;DHT22;7157;53.144;7.570;2023-08-17T01:16:41;17.14;94.00
14154;DHT22;7157;53.144;7.570;2023-08-17T01:26:46;17.06;94.42
14154;DHT22;7157;53.144;7.570;2023-08-17T01:36:52;17.02;94.48
14154;DHT22;7157;53.144;7.570;2023-08-17T01:46:57;16.88;94.82
14154;DHT22;7157;53.144;7.570;2023-08-17T01:57:00;16.84;95.02
14154;DHT22;7157;53.144;7.570;2023-08-17T02:07:04;16.87;94.96
14154;DHT22;7157;53.144;7.570;2023-08-17T02:17:07;16.76;95.66
14154;DHT22;7157;53.144;7.570;2023-08-17T02:27:11;16.89;95.53
14154;DHT22;7157;53.144;7.570;2023-08-17T02:37:14;16.87;95.84
14154;DHT22;7157;53.144;7.570;2023-08-17T02:47:18;16.90;96.07
14154;DHT22;7157;53.144;7.570;2023-08-17T02:57:21;16.95;96.23
14154;DHT22;7157;53.144;7.570;2023-08-17T03:07:26;16.99;96.33
14154;DHT22;7157;53.144;7.570;2023-08-17T03:17:29;17.04;96.46
14154;DHT22;7157;53.144;7.570;2023-08-17T03:27:33;17.08;96.55
14154;DHT22;7157;53.144;7.570;2023-08-17T03:37:36;17.05;96.84
14154;DHT22;7157;53.144;7.570;2023-08-17T03:47:41;17.03;96.94
14154;DHT22;7157;53.144;7.570;2023-08-17T03:57:45;16.91;97.20
14154;DHT22;7157;53.144;7.570;2023-08-17T04:07:49;16.91;97.15
14154;DHT22;7157;53.144;7.570;2023-08-17T04:17:52;16.87;97.28
14154;DHT22;7157;53.144;7.570;2023-08-17T04:27:56;16.79;97.58
14154;DHT22;7157;53.144;7.570;2023-08-17T04:37:59;16.78;97.94
14154;DHT22;7157;53.144;7.570;2023-08-17T04:48:04;16.89;98.03
14154;DHT22;7157;53.144;7.570;2023-08-17T04:58:07;16.94;98.17
14154;DHT22;7157;53.144;7.570;2023-08-17T05:08:11;17.06;98.00
14154;DHT22;7157;53.144;7.570;2023-08-17T05:18:15;17.25;97.15
14154;DHT22;7157;53.144;7.570;2023-08-17T05:28:19;17.44;96.42
14154;DHT22;7157;53.144;7.570;2023-08-17T05:38:22;17.64;95.96
14154;DHT22;7157;53.144;7.570;2023-08-17T05:48:26;17.82;95.07
14154;DHT22;7157;53.144;7.570;2023-08-17T05:58:29;17.87;94.70
14154;DHT22;7157;53.144;7.570;2023-08-17T06:08:33;17.87;94.02
14154;DHT22;7157;53.144;7.570;2023-08-17T06:18:36;17.91;94.37
14154;DHT22;7157;53.144;7.570;2023-08-17T06:28:40;17.99;94.04
14154;DHT22;7157;53.144;7.570;2023-08-17T06:38:43;18.00;93.78
14154;DHT22;7157;53.144;7.570;2023-08-17T06:48:48;18.00;93.65
14154;DHT22;7157;53.144;7.570;2023-08-17T06:58:51;18.07;92.92
14154;DHT22;7157;53.144;7.570;2023-08-17T07:08:55;18.36;92.08
14154;DHT22;7157;53.144;7.570;2023-08-17T07:18:58;18.88;89.66
14154;DHT22;7157;53.144;7.570;2023-08-17T07:29:02;19.05;88.66
14154;DHT22;7157;53.144;7.570;2023-08-17T07:39:05;18.74;88.94
14154;DHT22;7157;53.144;7.570;2023-08-17T07:49:09;18.78;89.27
14154;DHT22;7157;53.144;7.570;2023-08-17T07:59:31;19.00;88.55
14154;DHT22;7157;53.144;7.570;2023-08-17T08:09:35;19.40;87.46
14154;DHT22;7157;53.144;7.570;2023-08-17T08:19:38;19.89;85.77
14154;DHT22;7157;53.144;7.570;2023-08-17T08:29:42;19.54;86.80
14154;DHT22;7157;53.144;7.570;2023-08-17T08:39:48;19.40;87.09
14154;DHT22;7157;53.144;7.570;2023-08-17T08:49:58;19.32;87.27
14154;DHT22;7157;53.144;7.570;2023-08-17T09:00:03;19.55;87.17
14154;DHT22;7157;53.144;7.570;2023-08-17T09:10:09;19.95;86.19
14154;DHT22;7157;53.144;7.570;2023-08-17T09:20:12;20.31;85.11
14154;DHT22;7157;53.144;7.570;2023-08-17T09:30:49;20.65;84.54
14154;DHT22;7157;53.144;7.570;2023-08-17T09:40:52;20.59;84.68
14154;DHT22;7157;53.144;7.570;2023-08-17T09:50:57;20.50;84.97
14154;DHT22;7157;53.144;7.570;2023-08-17T10:01:03;20.47;85.96
14154;DHT22;7157;53.144;7.570;2023-08-17T10:11:08;20.30;86.16
14154;DHT22;7157;53.144;7.570;2023-08-17T10:21:16;20.21;86.22
14154;DHT22;7157;53.144;7.570;2023-08-17T10:31:21;20.55;85.55
14154;DHT22;7157;53.144;7.570;2023-08-17T10:41:24;21.34;82.64
14154;DHT22;7157;53.144;7.570;2023-08-17T10:51:28;21.07;82.85
14154;DHT22;7157;53.144;7.570;2023-08-17T11:01:33;20.99;82.73
14154;DHT22;7157;53.144;7.570;2023-08-17T11:11:37;21.17;83.20
14154;DHT22;7157;53.144;7.570;2023-08-17T11:21:41;21.36;82.39
14154;DHT22;7157;53.144;7.570;2023-08-17T11:31:45;22.72;76.73
14154;DHT22;7157;53.144;7.570;2023-08-17T11:41:52;23.21;74.09
14154;DHT22;7157;53.144;7.570;2023-08-17T11:51:56;22.34;76.44
14154;DHT22;7157;53.144;7.570;2023-08-17T12:02:00;22.10;78.75
14154;DHT22;7157;53.144;7.570;2023-08-17T12:12:06;22.14;78.74
14154;DHT22;7157;53.144;7.570;2023-08-17T12:22:11;22.54;77.76
14154;DHT22;7157;53.144;7.570;2023-08-17T12:32:17;21.95;79.58
14154;DHT22;7157;53.144;7.570;2023-08-17T12:42:20;21.92;80.19
14154;DHT22;7157;53.144;7.570;2023-08-17T12:52:25;22.11;79.92
14154;DHT22;7157;53.144;7.570;2023-08-17T13:02:28;21.95;80.36
14154;DHT22;7157;53.144;7.570;2023-08-17T13:12:32;21.88;80.83
14154;DHT22;7157;53.144;7.570;2023-08-17T13:22:35;21.69;81.77
14154;DHT22;7157;53.144;7.570;2023-08-17T13:32:39;21.84;82.28
14154;DHT22;7157;53.144;7.570;2023-08-17T13:42:46;21.91;82.05
14154;DHT22;7157;53.144;7.570;2023-08-17T13:52:50;21.76;82.41
14154;DHT22;7157;53.144;7.570;2023-08-17T14:02:53;21.58;83.48
14154;DHT22;7157;53.144;7.570;2023-08-17T14:12:57;21.58;84.13
14154;DHT22;7157;53.144;7.570;2023-08-17T14:23:00;21.50;84.78
14154;DHT22;7157;53.144;7.570;2023-08-17T14:33:04;21.48;84.25
14154;DHT22;7157;53.144;7.570;2023-08-17T14:43:07;21.53;83.66
14154;DHT22;7157;53.144;7.570;2023-08-17T14:53:12;21.49;84.55
14154;DHT22;7157;53.144;7.570;2023-08-17T15:03:15;21.28;84.72
14154;DHT22;7157;53.144;7.570;2023-08-17T15:13:20;21.08;85.22
14154;DHT22;7157;53.144;7.570;2023-08-17T15:23:24;20.91;85.80
14154;DHT22;7157;53.144;7.570;2023-08-17T15:33:28;20.63;86.12
14154;DHT22;7157;53.144;7.570;2023-08-17T15:43:31;20.48;86.32
14154;DHT22;7157;53.144;7.570;2023-08-17T15:53:35;20.54;85.69
14154;DHT22;7157;53.144;7.570;2023-08-17T16:03:41;20.51;85.48
14154;DHT22;7157;53.144;7.570;2023-08-17T16:13:45;20.94;83.53
14154;DHT22;7157;53.144;7.570;2023-08-17T16:23:48;21.15;78.44
14154;DHT22;7157;53.144;7.570;2023-08-17T16:33:52;21.05;77.29
14154;DHT22;7157;53.144;7.570;2023-08-17T16:43:55;21.39;77.04
14154;DHT22;7157;53.144;7.570;2023-08-17T16:53:59;20.93;77.83
14154;DHT22;7157;53.144;7.570;2023-08-17T17:04:02;20.89;77.96
14154;DHT22;7157;53.144;7.570;2023-08-17T17:14:06;20.72;77.53
14154;DHT22;7157;53.144;7.570;2023-08-17T17:24:09;20.56;77.69
14154;DHT22;7157;53.144;7.570;2023-08-17T17:34:13;20.34;77.56
14154;DHT22;7157;53.144;7.570;2023-08-17T17:44:16;20.17;78.32
14154;DHT22;7157;53.144;7.570;2023-08-17T17:54:20;20.09;78.98
14154;DHT22;7157;53.144;7.570;2023-08-17T18:04:23;19.92;79.83
14154;DHT22;7157;53.144;7.570;2023-08-17T18:14:27;19.77;80.49
14154;DHT22;7157;53.144;7.570;2023-08-17T18:24:30;19.65;81.00
14154;DHT22;7157;53.144;7.570;2023-08-17T18:34:34;19.52;81.54
14154;DHT22;7157;53.144;7.570;2023-08-17T18:44:37;19.42;81.39
14154;DHT22;7157;53.144;7.570;2023-08-17T18:54:56;19.46;81.26
14154;DHT22;7157;53.144;7.570;2023-08-17T19:04:59;19.40;81.44
14154;DHT22;7157;53.144;7.570;2023-08-17T19:15:06;19.27;81.74
14154;DHT22;7157;53.144;7.570;2023-08-17T19:25:12;19.12;82.42
14154;DHT22;7157;53.144;7.570;2023-08-17T19:35:19;18.94;81.49
14154;DHT22;7157;53.144;7.570;2023-08-17T19:45:22;18.94;80.78
14154;DHT22;7157;53.144;7.570;2023-08-17T19:55:26;18.89;80.38
14154;DHT22;7157;53.144;7.570;2023-08-17T20:05:29;18.89;80.04
14154;DHT22;7157;53.144;7.570;2023-08-17T20:15:36;18.95;79.86
14154;DHT22;7157;53.144;7.570;2023-08-17T20:25:39;18.95;79.81
14154;DHT22;7157;53.144;7.570;2023-08-17T20:35:49;18.96;79.25
14154;DHT22;7157;53.144;7.570;2023-08-17T20:45:52;18.80;79.32
14154;DHT22;7157;53.144;7.570;2023-08-17T20:55:56;18.66;79.95
14154;DHT22;7157;53.144;7.570;2023-08-17T21:06:02;18.62;80.60
14154;DHT22;7157;53.144;7.570;2023-08-17T21:16:07;18.66;80.70
14154;DHT22;7157;53.144;7.570;2023-08-17T21:26:10;18.59;81.23
14154;DHT22;7157;53.144;7.570;2023-08-17T21:36:14;18.48;82.36
14154;DHT22;7157;53.144;7.570;2023-08-17T21:46:17;18.50;82.87
14154;DHT22;7157;53.144;7.570;2023-08-17T21:56:21;18.51;83.50
14154;DHT22;7157;53.144;7.570;2023-08-17T22:06:25;18.50;83.97
14154;DHT22;7157;53.144;7.570;2023-08-17T22:16:29;18.50;84.19
14154;DHT22;7157;53.144;7.570;2023-08-17T22:26:32;18.43;84.55
14154;DHT22;7157;53.144;7.570;2023-08-17T22:36:36;18.42;85.13
14154;DHT22;7157;53.144;7.570;2023-08-17T22:46:39;18.46;85.18
14154;DHT22;7157;53.144;7.570;2023-08-17T22:56:43;18.42;85.63
14154;DHT22;7157;53.144;7.570;2023-08-17T23:06:46;18.42;86.12
14154;DHT22;7157;53.144;7.570;2023-08-17T23:16:50;18.46;85.94
14154;DHT22;7157;53.144;7.570;2023-08-17T23:26:53;18.41;86.41
14154;DHT22;7157;53.144;7.570;2023-08-17T23:36:57;18.39;86.90
14154;DHT22;7157;53.144;7.570;2023-08-17T23:46:59;18.37;87.37
14154;DHT22;7157;53.144;7.570;2023-08-17T23:57:04;18.40;87.54
